Time;durP1;ratioP1;P1;durP2;ratioP2;P2;SDS_P1;SDS_P2;PMS_P1;PMS_P2;Temp;Humidity;BMP_temperature;BMP_pressure;BME280_temperature;BME280_humidity;BME280_pressure;Samples;Min_cycle;Max_cycle;Signal;HPM_P1;HPM_P2
2024/02/21 00:01:22;;;;;;;14.10;5.25;;;4.70;78.00;;;;;;4973964;28;20396;-72
2024/02/21 00:03:48;;;;;;;15.65;5.75;;;4.70;77.40;;;;;;4973952;28;20035;-72
2024/02/21 00:06:13;;;;;;;15.93;5.45;;;4.70;77.60;;;;;;4973989;28;20034;-72
2024/02/21 00:08:39;;;;;;;14.95;6.63;;;4.70;77.60;;;;;;4973974;28;20027;-72
2024/02/21 00:11:04;;;;;;;16.98;5.97;;;4.70;77.70;;;;;;4974003;28;20392;-72
2024/02/21 00:13:30;;;;;;;14.93;5.60;;;4.70;77.80;;;;;;4972714;28;20023;-73
2024/02/21 00:15:55;;;;;;;18.75;6.25;;;4.70;77.90;;;;;;4973562;28;20110;-73
2024/02/21 00:18:21;;;;;;;11.73;4.97;;;4.60;77.90;;;;;;4972592;28;20023;-72
2024/02/21 00:20:47;;;;;;;16.63;5.85;;;4.50;78.20;;;;;;4973893;28;20030;-72
2024/02/21 00:23:12;;;;;;;14.00;5.38;;;4.50;78.40;;;;;;4973809;28;20031;-72
2024/02/21 00:25:38;;;;;;;14.18;5.32;;;4.60;78.40;;;;;;4973856;28;20500;-74
2024/02/21 00:28:05;;;;;;;14.23;5.40;;;4.50;78.30;;;;;;4973963;28;20507;-72
2024/02/21 00:30:31;;;;;;;14.70;5.60;;;4.60;78.30;;;;;;4972594;28;20023;-73
2024/02/21 00:32:56;;;;;;;18.52;5.15;;;4.60;78.10;;;;;;4973742;28;20439;-72
2024/02/21 00:35:22;;;;;;;11.82;5.35;;;4.60;78.20;;;;;;4973745;28;20031;-72
2024/02/21 00:37:48;;;;;;;20.33;6.20;;;4.70;78.10;;;;;;4974004;28;20047;-72
2024/02/21 00:40:19;;;;;;;16.17;5.03;;;4.60;78.10;;;;;;4973729;28;20027;-72
2024/02/21 00:42:45;;;;;;;21.90;5.55;;;4.60;78.10;;;;;;4973681;28;20472;-73
2024/02/21 00:45:11;;;;;;;19.00;4.70;;;4.60;78.00;;;;;;4973892;28;20055;-72
2024/02/21 00:47:36;;;;;;;19.33;5.75;;;4.60;78.20;;;;;;4956544;28;20073;-72
2024/02/21 00:50:02;;;;;;;10.90;4.82;;;4.60;78.40;;;;;;4976185;28;20082;-72
2024/02/21 00:52:28;;;;;;;18.88;5.25;;;4.60;78.30;;;;;;4977000;28;20034;-73
2024/02/21 00:54:53;;;;;;;13.52;4.30;;;4.70;78.40;;;;;;4977026;28;20085;-73
2024/02/21 00:57:19;;;;;;;13.73;4.90;;;4.70;78.30;;;;;;4975857;28;20114;-73
2024/02/21 00:59:44;;;;;;;10.48;4.72;;;4.70;78.10;;;;;;4977249;28;20106;-73
2024/02/21 01:02:10;;;;;;;13.60;5.07;;;4.80;78.00;;;;;;4977109;28;20599;-73
2024/02/21 01:04:36;;;;;;;17.38;5.88;;;4.80;78.00;;;;;;4977071;28;20560;-73
2024/02/21 01:07:02;;;;;;;11.57;4.82;;;4.80;77.80;;;;;;4976761;28;20077;-73
2024/02/21 01:09:27;;;;;;;14.65;4.75;;;4.80;77.80;;;;;;4977076;28;20030;-75
2024/02/21 01:11:53;;;;;;;11.57;5.50;;;4.70;77.80;;;;;;4976945;28;20384;-73
2024/02/21 01:14:18;;;;;;;14.27;4.97;;;4.70;77.80;;;;;;4976879;28;20097;-73
2024/02/21 01:16:44;;;;;;;13.52;5.10;;;4.70;77.70;;;;;;4976659;28;20053;-73
2024/02/21 01:19:09;;;;;;;12.60;4.93;;;4.80;77.60;;;;;;4976884;28;20357;-73
2024/02/21 01:21:35;;;;;;;14.05;4.80;;;4.80;77.50;;;;;;4976780;28;20034;-75
2024/02/21 01:24:00;;;;;;;16.15;5.60;;;4.80;77.40;;;;;;4976662;28;20369;-73
2024/02/21 01:26:26;;;;;;;15.98;4.63;;;4.70;77.70;;;;;;4976634;28;20086;-73
2024/02/21 01:28:52;;;;;;;12.65;5.45;;;4.60;77.80;;;;;;4976599;28;20031;-73
2024/02/21 01:31:17;;;;;;;10.85;4.72;;;4.60;78.00;;;;;;4959251;28;20031;-73
2024/02/21 01:33:43;;;;;;;12.88;4.80;;;4.60;78.20;;;;;;4976389;28;20026;-73
2024/02/21 01:36:08;;;;;;;21.95;5.57;;;4.70;78.20;;;;;;4976496;28;20050;-73
2024/02/21 01:38:34;;;;;;;13.75;5.30;;;4.70;78.10;;;;;;4976444;28;20101;-73
2024/02/21 01:41:00;;;;;;;14.93;4.95;;;4.70;78.00;;;;;;4976713;28;20416;-72
2024/02/21 01:43:26;;;;;;;14.32;4.15;;;4.70;78.10;;;;;;4976411;28;20094;-72
2024/02/21 01:45:53;;;;;;;14.50;4.55;;;4.70;77.90;;;;;;4976341;28;20038;-72
2024/02/21 01:48:21;;;;;;;13.20;3.90;;;4.80;78.00;;;;;;4958841;28;20126;-72
2024/02/21 01:50:48;;;;;;;15.25;4.40;;;4.80;78.00;;;;;;4976253;28;20077;-72
2024/02/21 01:53:31;;;;;;;11.70;4.35;;;4.80;77.80;;;;;;4976126;28;20027;-72
2024/02/21 01:55:56;;;;;;;11.07;4.63;;;4.70;78.00;;;;;;4976190;28;20444;-72
2024/02/21 01:58:23;;;;;;;15.18;4.13;;;4.80;78.10;;;;;;4976084;28;20023;-73
2024/02/21 02:00:50;;;;;;;9.73;4.13;;;4.80;78.00;;;;;;4975694;28;20034;-73
2024/02/21 02:03:18;;;;;;;12.20;4.15;;;4.90;78.00;;;;;;4975979;28;20034;-74
2024/02/21 02:05:48;;;;;;;12.98;4.40;;;4.90;77.80;;;;;;4976188;28;20026;-73
2024/02/21 02:08:14;;;;;;;10.25;4.07;;;5.00;77.60;;;;;;4975852;28;20038;-74
2024/02/21 02:10:41;;;;;;;10.30;4.50;;;5.00;77.30;;;;;;4975851;28;20034;-73
2024/02/21 02:13:07;;;;;;;12.77;4.22;;;5.00;77.20;;;;;;4975888;28;20146;-73
2024/02/21 02:15:46;;;;;;;12.05;4.18;;;5.00;77.20;;;;;;4975754;28;22750;-72
2024/02/21 02:18:13;;;;;;;12.10;4.13;;;5.10;76.90;;;;;;4975691;28;20050;-73
2024/02/21 02:20:39;;;;;;;12.13;3.83;;;5.10;76.60;;;;;;4975668;28;20038;-72
2024/02/21 02:23:11;;;;;;;12.35;4.55;;;5.00;76.50;;;;;;4975645;28;20483;-73
2024/02/21 02:25:37;;;;;;;12.80;4.13;;;5.00;76.50;;;;;;4958383;28;20057;-71
2024/02/21 02:28:04;;;;;;;10.13;3.75;;;5.00;76.50;;;;;;4975502;28;20114;-73
2024/02/21 02:30:38;;;;;;;11.25;4.32;;;5.00;76.50;;;;;;4975240;28;20555;-73
2024/02/21 02:33:04;;;;;;;13.02;4.38;;;5.00;76.60;;;;;;4975538;28;20033;-73
2024/02/21 02:35:30;;;;;;;10.48;4.75;;;4.90;76.70;;;;;;4975339;28;20453;-73
2024/02/21 02:37:56;;;;;;;9.85;4.45;;;4.90;77.90;;;;;;4975342;28;20040;-73
2024/02/21 02:40:22;;;;;;;16.63;4.85;;;4.90;77.10;;;;;;4974083;28;20019;-73
2024/02/21 02:42:48;;;;;;;12.23;4.28;;;5.00;77.00;;;;;;4975305;28;20027;-74
2024/02/21 02:45:15;;;;;;;13.32;4.72;;;5.00;76.90;;;;;;4975450;28;20031;-73
2024/02/21 02:47:40;;;;;;;12.43;3.53;;;5.00;76.60;;;;;;4975065;28;20045;-71
2024/02/21 02:50:07;;;;;;;16.60;4.40;;;5.00;76.50;;;;;;4975474;28;20098;-74
2024/02/21 02:52:32;;;;;;;12.07;3.88;;;5.00;76.20;;;;;;4957667;28;20086;-73
2024/02/21 02:54:58;;;;;;;14.23;3.60;;;5.00;76.20;;;;;;4974925;28;20023;-73
2024/02/21 02:57:24;;;;;;;15.73;4.30;;;5.00;76.20;;;;;;4974877;28;20078;-73
2024/02/21 02:59:50;;;;;;;11.75;4.13;;;5.00;76.10;;;;;;4974753;28;20031;-73
2024/02/21 03:02:16;;;;;;;10.48;3.25;;;5.00;76.40;;;;;;4957322;28;20023;-73
2024/02/21 03:04:41;;;;;;;15.13;3.58;;;5.00;76.30;;;;;;4974917;28;20038;-73
2024/02/21 03:07:07;;;;;;;18.40;4.35;;;5.00;75.70;;;;;;4973831;28;20031;-72
2024/02/21 03:09:32;;;;;;;16.38;4.55;;;4.90;75.80;;;;;;4975097;28;20031;-73
2024/02/21 03:12:02;;;;;;;16.52;4.45;;;4.90;76.10;;;;;;4974615;28;20026;-73
2024/02/21 03:14:28;;;;;;;12.80;4.03;;;4.90;75.80;;;;;;4974499;28;20795;-73
2024/02/21 03:16:54;;;;;;;11.40;3.70;;;4.80;75.90;;;;;;4974507;28;20042;-73
2024/02/21 03:19:20;;;;;;;11.18;3.33;;;4.90;75.70;;;;;;4974581;28;20468;-73
2024/02/21 03:21:45;;;;;;;11.80;3.88;;;4.90;75.50;;;;;;4974554;28;20105;-73
2024/02/21 03:24:11;;;;;;;10.35;3.78;;;4.90;75.50;;;;;;4974600;28;20479;-73
2024/02/21 03:26:36;;;;;;;10.82;3.13;;;5.00;75.00;;;;;;4974444;28;20031;-73
2024/02/21 03:29:03;;;;;;;14.82;3.20;;;5.00;74.80;;;;;;4974475;28;20042;-73
2024/02/21 03:31:29;;;;;;;13.38;3.38;;;5.00;75.00;;;;;;4974410;28;20034;-73
2024/02/21 03:33:54;;;;;;;13.68;3.35;;;5.10;74.60;;;;;;4974350;28;20023;-73
2024/02/21 03:36:20;;;;;;;9.93;2.58;;;5.10;74.10;;;;;;4973392;28;20031;-73
2024/02/21 03:38:45;;;;;;;11.50;2.75;;;5.20;73.30;;;;;;4974311;28;20077;-72
2024/02/21 03:41:11;;;;;;;14.93;3.25;;;5.20;72.80;;;;;;4974310;28;20030;-73
2024/02/21 03:43:39;;;;;;;10.18;3.15;;;5.20;72.60;;;;;;4974294;28;20027;-73
2024/02/21 03:46:06;;;;;;;9.13;2.53;;;5.30;72.50;;;;;;4974163;28;20384;-74
2024/02/21 03:48:32;;;;;;;9.30;2.70;;;5.30;72.50;;;;;;4974191;28;20075;-73
2024/02/21 03:50:57;;;;;;;15.50;3.30;;;5.30;71.90;;;;;;4974176;28;20119;-73
2024/02/21 03:53:23;;;;;;;11.63;3.13;;;5.40;71.70;;;;;;4974183;28;20064;-73
2024/02/21 03:55:48;;;;;;;13.25;3.25;;;5.50;71.30;;;;;;4974163;28;20531;-73
2024/02/21 03:58:14;;;;;;;9.05;2.95;;;5.50;70.10;;;;;;4974110;28;20037;-73
2024/02/21 04:00:40;;;;;;;6.88;2.13;;;5.60;69.70;;;;;;4974033;28;20092;-73
2024/02/21 04:03:06;;;;;;;5.80;2.50;;;5.70;69.90;;;;;;4974101;28;20476;-74
2024/02/21 04:05:32;;;;;;;21.98;3.25;;;5.70;69.70;;;;;;4973990;28;20528;-73
2024/02/21 04:07:57;;;;;;;9.65;2.53;;;5.70;69.80;;;;;;4973941;28;20039;-72
2024/02/21 04:10:23;;;;;;;12.05;3.35;;;5.80;69.50;;;;;;4974000;28;20436;-74
2024/02/21 04:12:50;;;;;;;8.65;2.58;;;5.80;68.90;;;;;;4974093;28;20038;-74
2024/02/21 04:15:16;;;;;;;9.73;2.30;;;5.90;68.90;;;;;;4973855;28;20472;-73
2024/02/21 04:17:41;;;;;;;7.80;2.42;;;5.90;68.50;;;;;;4973975;28;20042;-73
2024/02/21 04:20:14;;;;;;;11.10;3.42;;;5.90;68.50;;;;;;4973922;28;20146;-74
2024/02/21 04:22:40;;;;;;;8.93;2.72;;;5.90;68.90;;;;;;4973951;28;20550;-73
2024/02/21 04:25:06;;;;;;;9.70;2.70;;;5.90;68.60;;;;;;4976637;28;20030;-75
2024/02/21 04:27:31;;;;;;;8.07;2.10;;;5.80;68.30;;;;;;4977774;28;20404;-73
2024/02/21 04:29:57;;;;;;;9.73;2.40;;;5.80;68.20;;;;;;4977803;28;20019;-73
2024/02/21 04:32:23;;;;;;;8.27;2.40;;;5.80;68.20;;;;;;4977725;28;20034;-74
2024/02/21 04:34:48;;;;;;;10.35;2.80;;;5.80;68.40;;;;;;4976355;28;20053;-75
2024/02/21 04:37:14;;;;;;;6.65;2.10;;;5.80;68.70;;;;;;4977609;28;20081;-73
2024/02/21 04:39:39;;;;;;;8.13;2.30;;;5.80;69.10;;;;;;4977608;28;20090;-73
2024/02/21 04:42:05;;;;;;;9.90;2.10;;;5.80;69.30;;;;;;4977616;28;20067;-73
2024/02/21 04:44:30;;;;;;;6.15;2.17;;;5.80;69.70;;;;;;4977508;28;20102;-73
2024/02/21 04:46:56;;;;;;;9.30;2.70;;;5.70;70.00;;;;;;4975957;28;20069;-74
2024/02/21 04:49:21;;;;;;;6.93;2.25;;;5.70;70.70;;;;;;4977431;28;20023;-74
2024/02/21 04:51:47;;;;;;;8.07;2.13;;;5.70;69.70;;;;;;4977294;28;20097;-74
2024/02/21 04:54:12;;;;;;;10.88;2.50;;;5.70;69.00;;;;;;4977257;28;20031;-75
2024/02/21 04:56:38;;;;;;;13.32;3.00;;;5.70;68.70;;;;;;4977533;28;20031;-75
2024/02/21 04:59:04;;;;;;;12.68;2.30;;;5.70;69.00;;;;;;4977145;28;20037;-75
2024/02/21 05:01:29;;;;;;;8.90;2.20;;;5.80;68.90;;;;;;4977060;28;20054;-75
2024/02/21 05:03:55;;;;;;;12.05;2.67;;;5.80;68.60;;;;;;4977143;28;20033;-76
2024/02/21 05:06:20;;;;;;;9.38;2.20;;;5.80;68.80;;;;;;4977088;28;20031;-75
2024/02/21 05:08:46;;;;;;;10.27;2.63;;;5.70;68.50;;;;;;4977053;28;20038;-76
2024/02/21 05:11:11;;;;;;;7.38;2.33;;;5.70;68.70;;;;;;4976885;28;20071;-79
2024/02/21 05:13:37;;;;;;;12.95;4.55;;;5.70;68.80;;;;;;4976943;28;20149;-75
2024/02/21 05:16:02;;;;;;;15.40;2.65;;;5.70;68.90;;;;;;4976735;28;20055;-76
2024/02/21 05:18:28;;;;;;;9.20;2.78;;;5.70;69.10;;;;;;4977206;28;20411;-75
2024/02/21 05:20:54;;;;;;;7.20;2.90;;;5.70;69.40;;;;;;4976832;28;20038;-76
2024/02/21 05:23:19;;;;;;;11.00;2.70;;;5.70;69.60;;;;;;4976683;28;20026;-76
2024/02/21 05:25:45;;;;;;;8.55;2.30;;;5.70;69.60;;;;;;4975446;28;20118;-76
2024/02/21 05:28:11;;;;;;;13.25;3.20;;;5.70;69.70;;;;;;4976589;28;20026;-74
2024/02/21 05:30:36;;;;;;;7.15;2.70;;;5.60;69.60;;;;;;4976697;28;20382;-74
2024/02/21 05:33:08;;;;;;;7.03;2.38;;;5.70;69.70;;;;;;4976460;28;20050;-75
2024/02/21 05:35:34;;;;;;;5.55;2.58;;;5.70;69.60;;;;;;4975469;28;20047;-75
2024/02/21 05:37:59;;;;;;;5.50;2.00;;;5.70;69.50;;;;;;4976203;28;20476;-74
2024/02/21 05:40:25;;;;;;;8.43;2.47;;;5.70;69.30;;;;;;4976505;28;20027;-74
2024/02/21 05:42:51;;;;;;;18.55;2.97;;;5.70;69.20;;;;;;4976352;28;20038;-75
2024/02/21 05:45:17;;;;;;;13.82;3.03;;;5.70;69.00;;;;;;4976358;28;20114;-75
2024/02/21 05:47:43;;;;;;;13.63;2.70;;;5.70;69.00;;;;;;4976208;28;20121;-75
2024/02/21 05:50:10;;;;;;;11.73;2.65;;;5.70;69.00;;;;;;4976366;28;20113;-74
2024/02/21 05:52:35;;;;;;;7.38;2.38;;;5.70;69.00;;;;;;4976321;28;20471;-75
2024/02/21 05:55:01;;;;;;;8.18;2.65;;;5.70;68.90;;;;;;4975967;28;20058;-76
2024/02/21 05:57:26;;;;;;;6.60;2.72;;;5.80;68.60;;;;;;4976149;28;20164;-76
2024/02/21 05:59:52;;;;;;;13.63;3.40;;;5.80;68.50;;;;;;4975994;28;20385;-75
2024/02/21 06:02:17;;;;;;;8.68;3.15;;;5.90;68.60;;;;;;4975995;28;20035;-75
2024/02/21 06:04:44;;;;;;;10.95;3.00;;;5.90;68.70;;;;;;4976085;28;20023;-76
2024/02/21 06:07:09;;;;;;;7.13;2.17;;;5.80;68.80;;;;;;4958441;28;20038;-76
2024/02/21 06:09:35;;;;;;;14.55;2.95;;;5.80;68.80;;;;;;4974741;28;20026;-76
2024/02/21 06:12:01;;;;;;;7.57;3.10;;;5.80;69.00;;;;;;4975961;28;20027;-75
2024/02/21 06:14:26;;;;;;;11.77;3.42;;;5.80;69.10;;;;;;4975996;28;20106;-74
2024/02/21 06:16:52;;;;;;;11.10;3.22;;;5.80;69.30;;;;;;4975495;28;20411;-73
2024/02/21 06:19:17;;;;;;;12.43;3.92;;;5.80;69.70;;;;;;4975703;28;20446;-74
2024/02/21 06:21:43;;;;;;;10.70;3.58;;;5.80;69.60;;;;;;4958210;28;20027;-74
2024/02/21 06:24:08;;;;;;;14.27;4.45;;;5.80;69.80;;;;;;4975644;28;20105;-77
2024/02/21 06:26:34;;;;;;;18.42;5.32;;;5.80;70.90;;;;;;4975791;28;20029;-76
2024/02/21 06:28:59;;;;;;;15.32;4.38;;;5.80;70.20;;;;;;4975152;28;20101;-74
2024/02/21 06:31:25;;;;;;;11.95;4.50;;;5.80;70.20;;;;;;4975389;28;20026;-76
2024/02/21 06:33:51;;;;;;;14.30;4.63;;;5.70;70.30;;;;;;4975474;28;20460;-74
2024/02/21 06:36:16;;;;;;;13.35;4.05;;;5.80;70.90;;;;;;4975216;28;20049;-75
2024/02/21 06:38:42;;;;;;;13.75;4.80;;;5.80;70.30;;;;;;4973956;28;20023;-74
2024/02/21 06:41:15;;;;;;;10.65;4.45;;;5.80;70.30;;;;;;4958242;28;20033;-75
2024/02/21 06:43:41;;;;;;;13.13;4.80;;;5.80;70.20;;;;;;4975416;28;20109;-74
2024/02/21 06:46:06;;;;;;;14.65;4.88;;;5.80;70.10;;;;;;4975789;28;20109;-73
2024/02/21 06:48:32;;;;;;;25.08;6.53;;;5.80;70.00;;;;;;4976720;28;20484;-74
2024/02/21 06:50:57;;;;;;;19.48;8.65;;;5.90;69.80;;;;;;4975166;28;20061;-73
2024/02/21 06:53:23;;;;;;;21.33;10.32;;;5.90;69.90;;;;;;4957734;28;20062;-74
2024/02/21 06:55:48;;;;;;;22.02;11.55;;;5.90;70.00;;;;;;4975035;28;20026;-74
2024/02/21 06:58:15;;;;;;;31.08;15.95;;;5.90;70.00;;;;;;4973361;28;20045;-73
2024/02/21 07:00:42;;;;;;;30.23;15.65;;;5.90;70.00;;;;;;4973813;28;20114;-74
2024/02/21 07:03:08;;;;;;;29.25;13.98;;;6.00;70.00;;;;;;4957584;28;20112;-75
2024/02/21 07:05:34;;;;;;;26.55;11.95;;;6.00;70.00;;;;;;4974955;28;20030;-74
2024/02/21 07:07:59;;;;;;;21.70;9.27;;;6.00;69.90;;;;;;4974677;28;20035;-77
2024/02/21 07:10:25;;;;;;;15.85;6.40;;;6.00;69.70;;;;;;4957479;28;20529;-76
2024/02/21 07:12:52;;;;;;;16.67;5.45;;;6.00;69.80;;;;;;4973808;28;20034;-74
2024/02/21 07:15:17;;;;;;;16.05;4.95;;;6.10;70.40;;;;;;4957094;28;20491;-75
2024/02/21 07:17:43;;;;;;;14.85;5.45;;;6.10;69.50;;;;;;4974914;28;20038;-76
2024/02/21 07:20:09;;;;;;;17.48;6.40;;;6.20;69.40;;;;;;4974643;28;20476;-76
2024/02/21 07:22:34;;;;;;;15.02;6.15;;;6.20;69.30;;;;;;4957089;28;20026;-76
2024/02/21 07:25:00;;;;;;;16.02;7.00;;;6.20;68.90;;;;;;4974278;28;20031;-75
2024/02/21 07:27:30;;;;;;;17.67;6.78;;;6.30;69.00;;;;;;4957379;28;20057;-74
2024/02/21 07:29:56;;;;;;;14.43;6.22;;;6.40;68.90;;;;;;4973055;28;20349;-76
2024/02/21 07:32:21;;;;;;;13.88;4.78;;;6.40;68.70;;;;;;4974248;28;20034;-76
2024/02/21 07:34:47;;;;;;;10.90;3.83;;;6.50;68.70;;;;;;4974301;28;20031;-75
2024/02/21 07:37:12;;;;;;;14.55;4.05;;;6.60;68.50;;;;;;4973203;28;20023;-76
2024/02/21 07:39:38;;;;;;;8.60;3.10;;;6.70;68.30;;;;;;4974442;28;20039;-76
2024/02/21 07:42:04;;;;;;;10.05;3.55;;;6.70;67.80;;;;;;4972925;28;20277;-75
2024/02/21 07:44:31;;;;;;;8.25;3.30;;;6.80;67.50;;;;;;4972808;28;20023;-74
2024/02/21 07:46:57;;;;;;;12.48;3.83;;;6.90;67.20;;;;;;4974011;28;20031;-74
2024/02/21 07:49:22;;;;;;;8.88;3.00;;;7.00;66.60;;;;;;4973050;28;20373;-74
2024/02/21 07:51:48;;;;;;;10.65;3.97;;;7.00;66.30;;;;;;4957053;28;20395;-76
2024/02/21 07:54:14;;;;;;;13.43;5.10;;;7.10;65.80;;;;;;4974455;28;20031;-76
2024/02/21 07:56:39;;;;;;;9.40;4.18;;;7.20;65.60;;;;;;4974359;28;20094;-75
2024/02/21 07:59:05;;;;;;;8.73;3.97;;;7.30;65.70;;;;;;4973633;28;20035;-76
2024/02/21 08:01:30;;;;;;;9.15;3.33;;;7.40;65.40;;;;;;4956846;28;20027;-74
2024/02/21 08:03:56;;;;;;;7.20;2.80;;;7.50;64.50;;;;;;4973965;28;20203;-75
2024/02/21 08:06:21;;;;;;;10.07;3.10;;;7.50;62.40;;;;;;4974120;28;20182;-76
2024/02/21 08:08:47;;;;;;;6.88;2.85;;;7.50;62.90;;;;;;4973992;28;20502;-72
2024/02/21 08:11:12;;;;;;;7.97;3.15;;;7.60;63.00;;;;;;4974257;28;20022;-73
2024/02/21 08:13:38;;;;;;;10.27;2.85;;;7.70;62.90;;;;;;4974536;28;20073;-73
2024/02/21 08:16:04;;;;;;;25.27;5.78;;;7.90;62.90;;;;;;4973767;28;20057;-73
2024/02/21 08:18:29;;;;;;;16.88;3.95;;;8.10;72.20;;;;;;4961050;28;20176;-74
2024/02/21 08:20:55;;;;;;;9.48;3.20;;;9.00;84.50;;;;;;4956694;29;20023;-76
2024/02/21 08:23:24;;;;;;;11.00;2.67;;;9.30;76.20;;;;;;4956344;29;20031;-74
2024/02/21 08:25:49;;;;;;;10.80;3.05;;;9.60;68.90;;;;;;4954396;29;20027;-74
2024/02/21 08:28:15;;;;;;;5.88;2.83;;;9.80;64.60;;;;;;4937371;29;20042;-76
2024/02/21 08:30:47;;;;;;;7.57;2.72;;;10.30;62.20;;;;;;4937313;29;20030;-75
2024/02/21 08:33:24;;;;;;;9.82;2.55;;;10.60;59.20;;;;;;4937695;29;20616;-76
2024/02/21 08:35:50;;;;;;;5.45;2.20;;;10.80;55.80;;;;;;4937192;29;20027;-78
2024/02/21 08:38:15;;;;;;;7.60;2.17;;;11.10;53.20;;;;;;4937634;29;20023;-76
2024/02/21 08:40:41;;;;;;;7.15;2.40;;;11.30;52.80;;;;;;4953120;28;20369;-79
2024/02/21 08:43:06;;;;;;;6.70;2.15;;;11.40;52.20;;;;;;4953650;28;20484;-78
2024/02/21 08:45:32;;;;;;;5.43;2.28;;;11.40;49.60;;;;;;4953465;28;20393;-76
2024/02/21 08:47:57;;;;;;;6.63;2.00;;;11.40;49.40;;;;;;4937057;29;20118;-79
2024/02/21 08:50:23;;;;;;;5.38;2.00;;;11.60;48.60;;;;;;4937105;29;20020;-78
2024/02/21 08:52:49;;;;;;;3.95;1.70;;;11.70;48.20;;;;;;4953387;28;20059;-77
2024/02/21 08:55:25;;;;;;;4.82;1.55;;;11.80;47.70;;;;;;4937528;29;20034;-81
2024/02/21 08:57:51;;;;;;;5.50;2.08;;;11.70;45.80;;;;;;4937371;29;20077;-76
2024/02/21 09:00:17;;;;;;;5.13;2.00;;;11.70;45.80;;;;;;4937318;29;20416;-78
2024/02/21 09:02:43;;;;;;;4.82;1.77;;;11.60;44.70;;;;;;4937521;29;20035;-72
2024/02/21 09:05:08;;;;;;;3.92;1.58;;;11.30;43.60;;;;;;4954228;29;20496;-74
2024/02/21 09:07:34;;;;;;;4.90;1.58;;;11.10;44.10;;;;;;4953993;29;20035;-74
2024/02/21 09:10:00;;;;;;;5.47;1.65;;;11.00;44.90;;;;;;4954844;28;20469;-74
2024/02/21 09:12:26;;;;;;;4.95;1.90;;;10.80;44.40;;;;;;4957642;29;20391;-72
2024/02/21 09:14:52;;;;;;;4.55;2.20;;;10.70;45.30;;;;;;4957560;29;20019;-74
2024/02/21 09:17:17;;;;;;;5.35;1.85;;;10.70;46.40;;;;;;4957561;29;20043;-72
2024/02/21 09:19:44;;;;;;;4.03;1.95;;;10.80;46.80;;;;;;4957573;29;20039;-73
2024/02/21 09:22:10;;;;;;;9.88;2.25;;;10.90;46.70;;;;;;4957211;29;20031;-73
2024/02/21 09:24:35;;;;;;;5.25;2.30;;;11.00;46.10;;;;;;4957726;29;20058;-71
2024/02/21 09:27:00;;;;;;;3.33;1.60;;;11.20;46.10;;;;;;4956994;29;20046;-72
2024/02/21 09:29:26;;;;;;;4.60;1.48;;;11.30;46.20;;;;;;4957254;29;20038;-73
2024/02/21 09:31:52;;;;;;;6.25;1.45;;;11.50;45.80;;;;;;4957670;29;20019;-72
2024/02/21 09:34:17;;;;;;;3.80;1.60;;;11.70;45.00;;;;;;4957474;29;20062;-73
2024/02/21 09:36:44;;;;;;;5.18;1.73;;;11.80;44.30;;;;;;4957046;29;20189;-74
2024/02/21 09:39:14;;;;;;;5.22;1.73;;;12.00;43.40;;;;;;4957255;29;20033;-73
2024/02/21 09:41:45;;;;;;;3.55;1.58;;;12.00;43.50;;;;;;4957005;29;20421;-73
2024/02/21 09:44:14;;;;;;;4.10;1.70;;;12.10;43.60;;;;;;4957147;29;20027;-73
2024/02/21 09:47:06;;;;;;;4.45;1.98;;;12.30;43.30;;;;;;4956453;29;20397;-74
2024/02/21 09:49:38;;;;;;;3.55;1.30;;;12.50;42.80;;;;;;4939439;29;20033;-73
2024/02/21 09:52:06;;;;;;;3.63;1.30;;;12.60;39.10;;;;;;4956786;29;20033;-72
2024/02/21 09:54:33;;;;;;;4.18;1.50;;;12.70;39.30;;;;;;4956417;29;20066;-73
2024/02/21 09:57:00;;;;;;;3.67;1.23;;;12.90;40.20;;;;;;4956481;29;20051;-73
2024/02/21 09:59:28;;;;;;;4.07;1.73;;;12.90;37.90;;;;;;4956639;29;20031;-73
2024/02/21 10:01:53;;;;;;;4.10;1.40;;;13.00;38.20;;;;;;4956528;29;20094;-72
2024/02/21 10:04:20;;;;;;;5.28;1.90;;;13.10;38.70;;;;;;4939393;29;20070;-72
2024/02/21 10:06:46;;;;;;;6.45;2.15;;;13.30;40.00;;;;;;4956472;29;20052;-73
2024/02/21 10:09:22;;;;;;;4.63;1.33;;;13.40;39.90;;;;;;4956538;29;20037;-73
2024/02/21 10:11:49;;;;;;;4.95;1.67;;;13.40;36.40;;;;;;4956610;29;20067;-73
2024/02/21 10:14:15;;;;;;;4.20;1.65;;;13.40;37.20;;;;;;4956446;29;20019;-72
2024/02/21 10:16:41;;;;;;;4.65;1.67;;;13.40;37.50;;;;;;4938793;29;20138;-73
2024/02/21 10:19:06;;;;;;;3.72;1.35;;;13.70;37.80;;;;;;4956047;29;20380;-73
2024/02/21 10:21:32;;;;;;;2.67;1.40;;;13.90;35.80;;;;;;4955796;28;20050;-73
2024/02/21 10:23:57;;;;;;;3.72;1.40;;;14.10;35.50;;;;;;4956360;29;20034;-72
2024/02/21 10:26:23;;;;;;;3.58;1.30;;;14.20;34.50;;;;;;4956224;29;20134;-74
2024/02/21 10:28:51;;;;;;;2.65;1.33;;;14.40;34.30;;;;;;4956106;29;20079;-73
2024/02/21 10:31:24;;;;;;;3.17;1.30;;;14.50;34.90;;;;;;4956256;29;20123;-73
2024/02/21 10:34:03;;;;;;;3.15;1.27;;;14.50;33.90;;;;;;4956040;29;20024;-74
2024/02/21 10:36:29;;;;;;;1.85;0.90;;;14.40;33.10;;;;;;4955919;29;20507;-72
2024/02/21 10:38:55;;;;;;;4.57;1.10;;;14.30;32.60;;;;;;4955762;29;20399;-72
2024/02/21 10:41:22;;;;;;;2.70;1.13;;;14.20;32.00;;;;;;4955563;29;20023;-72
2024/02/21 10:43:53;;;;;;;1.98;1.42;;;14.10;32.70;;;;;;4955554;29;20062;-72
2024/02/21 10:46:21;;;;;;;3.00;1.10;;;14.00;33.70;;;;;;4955511;29;20034;-72
2024/02/21 10:48:48;;;;;;;8.10;1.70;;;14.00;34.10;;;;;;4938164;29;20039;-72
2024/02/21 10:51:19;;;;;;;3.92;1.05;;;14.10;34.00;;;;;;4938188;29;20034;-73
2024/02/21 10:53:50;;;;;;;4.82;1.13;;;14.10;33.70;;;;;;4955539;29;20507;-74
2024/02/21 10:56:36;;;;;;;3.65;1.20;;;13.90;29.90;;;;;;4955721;29;20029;-72
2024/02/21 10:59:03;;;;;;;2.72;1.25;;;13.80;32.40;;;;;;4955004;29;20102;-72
2024/02/21 11:01:31;;;;;;;3.17;1.13;;;13.40;32.60;;;;;;4955179;29;20365;-72
2024/02/21 11:04:00;;;;;;;3.58;1.70;;;13.60;33.80;;;;;;4955477;29;20077;-72
2024/02/21 11:06:27;;;;;;;1.45;0.63;;;13.80;33.80;;;;;;4955360;29;20106;-73
2024/02/21 11:09:04;;;;;;;1.45;0.50;;;13.90;25.70;;;;;;4955207;29;20143;-72
2024/02/21 11:11:43;;;;;;;1.92;1.05;;;13.80;22.60;;;;;;4938345;29;20059;-72
2024/02/21 11:14:11;;;;;;;2.65;0.80;;;13.80;29.30;;;;;;4955415;29;20099;-73
2024/02/21 11:16:41;;;;;;;2.92;1.00;;;14.00;29.10;;;;;;4955145;29;20039;-72
2024/02/21 11:19:21;;;;;;;1.45;0.75;;;14.10;30.00;;;;;;4938399;29;20027;-73
2024/02/21 11:21:47;;;;;;;1.63;0.77;;;14.20;29.70;;;;;;4955409;29;20488;-72
2024/02/21 11:24:13;;;;;;;2.22;0.82;;;14.30;29.40;;;;;;4938082;29;20575;-72
2024/02/21 11:26:41;;;;;;;2.20;0.95;;;14.40;27.80;;;;;;4938184;29;20122;-73
2024/02/21 11:29:09;;;;;;;0.60;0.52;;;14.30;28.40;;;;;;4955156;29;20027;-72
2024/02/21 11:31:41;;;;;;;0.88;0.38;;;14.40;20.00;;;;;;4954625;29;20031;-73
2024/02/21 11:34:10;;;;;;;0.80;0.50;;;14.20;18.40;;;;;;4954009;28;20082;-74
2024/02/21 11:36:49;;;;;;;0.80;0.30;;;13.90;18.50;;;;;;4954837;29;20023;-73
2024/02/21 11:39:25;;;;;;;1.42;0.82;;;13.90;18.70;;;;;;4954931;29;20106;-72
2024/02/21 11:42:04;;;;;;;0.43;0.40;;;13.80;17.70;;;;;;4955141;29;20052;-72
2024/02/21 11:44:31;;;;;;;0.77;0.40;;;13.90;18.90;;;;;;4954910;29;20019;-73
2024/02/21 11:46:56;;;;;;;3.42;0.60;;;14.00;18.20;;;;;;4954625;29;20019;-73
2024/02/21 11:49:25;;;;;;;1.65;0.45;;;14.10;18.40;;;;;;4937226;29;20023;-72
2024/02/21 11:52:01;;;;;;;0.95;0.35;;;14.20;18.30;;;;;;4953060;29;20024;-73
2024/02/21 11:54:27;;;;;;;1.67;0.60;;;14.30;18.10;;;;;;4954521;29;20023;-74
2024/02/21 11:56:53;;;;;;;0.52;0.30;;;14.50;17.90;;;;;;4954224;29;20050;-73
2024/02/21 11:59:18;;;;;;;0.63;0.25;;;14.40;17.20;;;;;;4953837;29;20497;-74
2024/02/21 12:01:44;;;;;;;0.93;0.70;;;14.40;17.40;;;;;;4954497;29;20491;-74
2024/02/21 12:04:10;;;;;;;0.70;0.40;;;14.40;17.70;;;;;;4954561;29;20111;-74
2024/02/21 12:06:35;;;;;;;0.30;0.30;;;14.40;18.00;;;;;;4954585;29;20031;-73
2024/02/21 12:09:01;;;;;;;1.52;0.30;;;14.40;18.40;;;;;;4954594;29;20047;-73
2024/02/21 12:11:27;;;;;;;1.55;0.40;;;14.50;17.70;;;;;;4954732;29;20023;-73
2024/02/21 12:14:06;;;;;;;0.95;0.43;;;14.60;18.40;;;;;;4954755;29;20031;-73
2024/02/21 12:16:32;;;;;;;0.38;0.30;;;14.50;17.40;;;;;;4954873;29;20043;-73
2024/02/21 12:18:59;;;;;;;0.80;0.30;;;14.50;16.20;;;;;;4956837;29;20098;-73
2024/02/21 12:21:28;;;;;;;0.85;0.52;;;14.60;17.00;;;;;;4954715;29;20034;-73
2024/02/21 12:23:54;;;;;;;0.35;0.28;;;14.60;17.70;;;;;;4954712;29;20019;-73
2024/02/21 12:26:20;;;;;;;3.10;0.50;;;14.60;18.00;;;;;;4954684;29;20548;-74
2024/02/21 12:28:46;;;;;;;1.55;0.50;;;14.50;18.20;;;;;;4954198;29;20051;-73
2024/02/21 12:31:12;;;;;;;0.77;0.40;;;14.40;19.40;;;;;;4954606;29;20028;-73
2024/02/21 12:33:38;;;;;;;2.33;0.60;;;14.40;19.00;;;;;;4954659;29;20473;-74
2024/02/21 12:36:03;;;;;;;1.98;0.55;;;14.40;19.20;;;;;;4937642;29;20030;-73
2024/02/21 12:38:29;;;;;;;0.63;0.43;;;14.40;18.80;;;;;;4954671;29;20109;-73
2024/02/21 12:40:57;;;;;;;0.98;0.52;;;14.50;18.60;;;;;;4954447;29;20035;-73
2024/02/21 12:43:23;;;;;;;0.73;0.40;;;14.50;18.60;;;;;;4954589;29;20034;-74
2024/02/21 12:45:49;;;;;;;0.68;0.65;;;14.60;19.10;;;;;;4956606;28;20027;-73